Time;durP1;ratioP1;P1;durP2;ratioP2;P2;SDS_P1;SDS_P2;PMS_P1;PMS_P2;Temp;Humidity;BMP_temperature;BMP_pressure;BME280_temperature;BME280_humidity;BME280_pressure;Samples;Min_cycle;Max_cycle;Signal;HPM_P1;HPM_P2
2022/06/28 00:01:29;;;;;;;14.93;11.47;;;21.50;99.90;;;;;;5028385;28;20420;-86
2022/06/28 00:03:56;;;;;;;18.55;11.93;;;21.50;99.90;;;;;;5013041;28;20391;-85
2022/06/28 00:06:24;;;;;;;15.80;11.48;;;21.40;99.90;;;;;;5013007;28;20421;-85
2022/06/28 00:08:51;;;;;;;14.65;10.70;;;21.40;99.90;;;;;;5027657;28;20885;-84
2022/06/28 00:11:19;;;;;;;15.85;10.82;;;21.40;99.90;;;;;;5012634;28;20445;-85
2022/06/28 00:13:47;;;;;;;17.75;11.75;;;21.40;99.90;;;;;;5023630;28;20390;-85
2022/06/28 00:16:16;;;;;;;17.27;11.40;;;21.40;99.90;;;;;;5032200;28;20398;-86
2022/06/28 00:18:44;;;;;;;18.40;12.35;;;21.30;99.90;;;;;;5018558;28;20453;-85
2022/06/28 00:21:12;;;;;;;14.77;11.32;;;21.30;99.90;;;;;;5012724;28;20395;-85
2022/06/28 00:23:42;;;;;;;15.65;11.40;;;21.30;99.90;;;;;;5020745;28;20465;-86
2022/06/28 00:26:11;;;;;;;17.58;12.10;;;21.30;99.90;;;;;;5014508;28;20381;-86
2022/06/28 00:28:39;;;;;;;16.10;11.25;;;21.20;99.90;;;;;;5014572;28;20448;-85
2022/06/28 00:31:06;;;;;;;17.05;11.50;;;21.20;99.90;;;;;;5014388;28;20764;-85
2022/06/28 00:33:34;;;;;;;15.15;11.00;;;21.20;99.90;;;;;;5031627;28;20871;-86
2022/06/28 00:36:02;;;;;;;14.00;11.27;;;21.10;99.90;;;;;;5030507;28;20484;-84
2022/06/28 00:38:30;;;;;;;13.85;11.05;;;21.10;99.90;;;;;;5010658;28;20414;-85
2022/06/28 00:40:58;;;;;;;14.48;11.27;;;21.10;99.90;;;;;;5026812;28;20418;-85
2022/06/28 00:43:27;;;;;;;15.70;11.18;;;21.10;99.90;;;;;;5027366;28;20407;-86
2022/06/28 00:45:54;;;;;;;15.00;10.75;;;21.10;99.90;;;;;;5027115;28;20406;-87
2022/06/28 00:48:24;;;;;;;14.80;11.27;;;21.10;99.90;;;;;;5010566;28;20403;-86
2022/06/28 00:50:51;;;;;;;14.23;10.80;;;21.00;99.90;;;;;;5040066;28;20392;-85
2022/06/28 00:53:20;;;;;;;16.70;10.73;;;21.00;99.90;;;;;;5007023;28;20396;-86
2022/06/28 00:55:48;;;;;;;11.80;10.55;;;21.00;99.90;;;;;;5023990;28;20451;-86
2022/06/28 00:58:16;;;;;;;14.27;11.57;;;20.90;99.90;;;;;;5006902;28;20490;-86
2022/06/28 01:00:48;;;;;;;14.52;11.60;;;20.90;99.90;;;;;;5024645;28;20571;-85
2022/06/28 01:03:20;;;;;;;14.23;10.77;;;20.90;99.90;;;;;;5024042;28;20420;-85
2022/06/28 01:05:51;;;;;;;14.50;11.05;;;20.90;99.90;;;;;;5024315;28;20401;-85
2022/06/28 01:08:22;;;;;;;15.60;11.25;;;20.90;99.90;;;;;;5024229;28;20407;-86
2022/06/28 01:10:50;;;;;;;16.83;11.48;;;20.80;99.90;;;;;;5010589;28;20387;-85
2022/06/28 01:13:19;;;;;;;12.30;10.73;;;20.90;99.90;;;;;;5010824;28;20399;-85
2022/06/28 01:15:49;;;;;;;15.27;11.50;;;20.80;99.90;;;;;;5043680;28;20456;-85
2022/06/28 01:18:18;;;;;;;14.13;11.00;;;20.80;99.90;;;;;;5009851;28;20893;-85
2022/06/28 01:20:50;;;;;;;16.52;11.13;;;20.80;99.90;;;;;;5011352;28;20466;-84
2022/06/28 01:23:27;;;;;;;13.98;11.30;;;20.70;99.90;;;;;;5028317;28;20399;-86
2022/06/28 01:26:33;;;;;;;15.25;10.98;;;20.70;99.90;;;;;;5011125;28;20763;-86
2022/06/28 01:29:02;;;;;;;12.80;11.13;;;20.80;99.90;;;;;;5011779;28;20390;-84
2022/06/28 01:31:50;;;;;;;15.40;11.13;;;20.70;99.90;;;;;;5011219;28;20762;-86
2022/06/28 01:34:18;;;;;;;15.02;11.27;;;20.70;99.90;;;;;;5043411;28;20434;-85
2022/06/28 01:36:46;;;;;;;13.97;10.70;;;20.70;99.90;;;;;;5011262;28;20402;-86
2022/06/28 01:39:15;;;;;;;13.85;11.38;;;20.70;99.90;;;;;;5043100;28;20933;-85
2022/06/28 01:41:43;;;;;;;14.93;11.63;;;20.60;99.90;;;;;;4990809;28;20388;-85
2022/06/28 01:44:18;;;;;;;13.95;10.85;;;20.60;99.90;;;;;;4992449;28;20902;-85
2022/06/28 01:47:02;;;;;;;15.63;11.18;;;20.70;99.90;;;;;;5023311;28;20392;-84
2022/06/28 01:49:55;;;;;;;11.90;10.63;;;20.70;99.90;;;;;;4983621;28;20389;-85
2022/06/28 01:52:26;;;;;;;11.95;10.27;;;20.60;99.90;;;;;;5003812;28;20405;-85
2022/06/28 01:54:55;;;;;;;16.73;11.07;;;20.70;99.90;;;;;;4990717;28;20401;-85
2022/06/28 01:57:23;;;;;;;12.30;10.75;;;20.60;99.90;;;;;;5023588;28;20409;-85
2022/06/28 01:59:56;;;;;;;14.00;10.90;;;20.60;99.90;;;;;;4999753;28;20772;-86
2022/06/28 02:02:53;;;;;;;13.65;11.30;;;20.60;99.90;;;;;;5036415;28;20411;-86
2022/06/28 02:05:41;;;;;;;14.68;10.88;;;20.60;99.90;;;;;;5011585;28;20879;-86
2022/06/28 02:08:10;;;;;;;15.63;11.47;;;20.60;99.90;;;;;;5043205;28;20406;-86
2022/06/28 02:10:45;;;;;;;18.17;12.45;;;20.60;99.90;;;;;;5010934;28;20407;-85
2022/06/28 02:13:13;;;;;;;20.90;13.23;;;20.50;99.90;;;;;;5030271;28;20918;-85
2022/06/28 02:15:42;;;;;;;14.85;12.40;;;20.40;99.90;;;;;;5013633;28;20473;-85
2022/06/28 02:18:09;;;;;;;12.80;11.50;;;20.50;99.90;;;;;;5046427;28;20806;-85
2022/06/28 02:20:37;;;;;;;14.63;11.80;;;20.50;99.90;;;;;;5010083;28;20459;-85
2022/06/28 02:23:05;;;;;;;14.15;10.93;;;20.50;99.90;;;;;;4994142;28;20409;-85
2022/06/28 02:25:33;;;;;;;14.57;11.57;;;20.50;99.90;;;;;;4994101;28;20891;-86
2022/06/28 02:28:01;;;;;;;12.63;11.32;;;20.50;99.90;;;;;;5027024;28;20408;-85
2022/06/28 02:30:28;;;;;;;13.90;11.10;;;20.50;99.90;;;;;;5010152;28;20392;-86
2022/06/28 02:32:56;;;;;;;13.10;11.17;;;20.50;99.90;;;;;;5026668;28;20401;-85
2022/06/28 02:40:55;;;;;;;13.57;11.23;;;20.50;99.90;;;;;;5013109;28;20402;-84
2022/06/28 02:43:23;;;;;;;12.93;11.45;;;20.60;99.90;;;;;;5001160;28;20391;-85
2022/06/28 02:45:51;;;;;;;16.42;11.68;;;20.60;99.90;;;;;;5029881;28;20405;-85
2022/06/28 02:48:20;;;;;;;15.73;12.13;;;20.60;99.90;;;;;;5009002;28;20399;-86
2022/06/28 02:50:47;;;;;;;15.93;11.88;;;20.70;99.90;;;;;;5032809;28;20455;-84
2022/06/28 02:53:15;;;;;;;15.65;11.60;;;20.60;99.90;;;;;;5016123;28;20464;-86
2022/06/28 02:55:43;;;;;;;14.38;11.75;;;20.60;99.90;;;;;;5016693;28;20448;-86
2022/06/28 02:58:10;;;;;;;15.00;11.75;;;20.70;99.90;;;;;;5032360;28;20406;-87
2022/06/28 03:00:38;;;;;;;14.50;11.33;;;20.70;99.90;;;;;;5015767;28;20938;-84
2022/06/28 03:03:06;;;;;;;14.07;12.15;;;20.70;99.90;;;;;;5016005;28;20393;-85
2022/06/28 03:05:35;;;;;;;16.43;11.80;;;20.70;99.90;;;;;;5033495;28;20424;-85
2022/06/28 03:08:08;;;;;;;15.32;11.85;;;20.70;99.90;;;;;;5048900;28;20405;-85
2022/06/28 03:10:38;;;;;;;19.25;12.82;;;20.70;99.90;;;;;;5015603;28;20390;-85
2022/06/28 03:13:06;;;;;;;14.60;12.27;;;20.80;99.90;;;;;;5032432;28;20398;-85
2022/06/28 03:15:33;;;;;;;15.90;11.77;;;20.80;99.90;;;;;;4999581;28;20398;-85
2022/06/28 03:18:01;;;;;;;13.63;12.02;;;20.80;99.90;;;;;;5033432;28;20402;-85
2022/06/28 03:20:29;;;;;;;14.30;11.80;;;20.80;99.90;;;;;;5031690;28;20402;-86
2022/06/28 03:22:57;;;;;;;14.30;11.35;;;20.80;99.90;;;;;;5015270;28;20443;-86
2022/06/28 03:25:26;;;;;;;13.17;11.80;;;20.80;99.90;;;;;;5032051;28;20393;-86
2022/06/28 03:27:54;;;;;;;14.30;11.75;;;20.90;99.90;;;;;;5048462;28;20409;-86
2022/06/28 03:30:22;;;;;;;14.45;11.25;;;20.90;99.90;;;;;;5015381;28;20472;-86
2022/06/28 03:32:50;;;;;;;14.38;11.60;;;20.90;99.90;;;;;;5015369;28;20455;-86
2022/06/28 03:35:28;;;;;;;12.88;11.55;;;20.90;99.90;;;;;;5030398;28;20406;-86
2022/06/28 03:37:55;;;;;;;12.20;10.90;;;21.00;99.90;;;;;;5015188;28;20420;-86
2022/06/28 03:40:39;;;;;;;12.70;11.40;;;21.00;99.90;;;;;;5030810;28;20993;-85
2022/06/28 03:43:07;;;;;;;11.82;10.63;;;21.00;99.90;;;;;;4999764;28;20495;-85
2022/06/28 03:45:34;;;;;;;11.90;10.70;;;21.10;99.90;;;;;;5015273;28;20377;-86
2022/06/28 03:48:25;;;;;;;13.15;11.43;;;21.10;99.90;;;;;;5029952;28;20401;-86
2022/06/28 03:51:12;;;;;;;12.13;10.70;;;21.10;99.90;;;;;;5032790;28;20748;-84
2022/06/28 03:53:59;;;;;;;12.27;11.00;;;21.20;99.90;;;;;;5032758;28;20402;-85
2022/06/28 03:56:34;;;;;;;13.10;11.15;;;21.20;99.90;;;;;;5014959;28;20423;-86
2022/06/28 03:59:02;;;;;;;13.60;10.77;;;21.20;99.90;;;;;;5031270;28;20401;-85
2022/06/28 04:01:30;;;;;;;12.85;11.57;;;21.20;99.90;;;;;;5032532;28;20381;-85
2022/06/28 04:03:58;;;;;;;12.82;10.48;;;21.30;99.90;;;;;;5031819;28;20484;-85
2022/06/28 04:06:25;;;;;;;11.60;10.50;;;21.30;99.90;;;;;;5014860;28;20389;-85
2022/06/28 04:08:53;;;;;;;11.90;10.80;;;21.30;99.90;;;;;;5019403;28;20399;-87
2022/06/28 04:11:22;;;;;;;12.38;11.18;;;21.30;99.90;;;;;;5004653;28;21058;-85
2022/06/28 04:13:52;;;;;;;12.02;10.93;;;21.40;99.90;;;;;;5027752;28;20913;-84
2022/06/28 04:16:23;;;;;;;12.20;10.90;;;21.40;99.90;;;;;;4995125;28;20886;-87
2022/06/28 04:18:55;;;;;;;11.65;10.63;;;21.40;99.90;;;;;;4995229;28;20415;-87
2022/06/28 04:21:27;;;;;;;12.75;11.30;;;21.50;99.90;;;;;;4995672;28;20782;-87
2022/06/28 04:24:21;;;;;;;13.63;11.10;;;21.50;99.90;;;;;;5018393;28;20429;-88
2022/06/28 04:27:12;;;;;;;12.33;10.90;;;21.50;99.90;;;;;;5032083;28;20398;-87
2022/06/28 04:29:40;;;;;;;13.18;11.18;;;21.60;99.90;;;;;;5032165;28;20447;-86
2022/06/28 04:32:17;;;;;;;11.90;10.27;;;21.50;99.90;;;;;;5014280;28;20432;-86
2022/06/28 04:34:45;;;;;;;12.07;10.98;;;21.60;99.90;;;;;;5046866;28;20398;-85
2022/06/28 04:37:12;;;;;;;12.90;11.60;;;21.60;99.90;;;;;;5011487;28;20903;-86
2022/06/28 04:39:42;;;;;;;12.50;11.30;;;21.60;99.90;;;;;;5035050;28;20412;-87
2022/06/28 04:42:18;;;;;;;11.93;10.73;;;21.60;99.90;;;;;;5019883;28;20888;-86
2022/06/28 04:44:46;;;;;;;11.60;10.45;;;21.70;99.90;;;;;;5043564;28;20455;-86
2022/06/28 04:47:24;;;;;;;12.88;11.15;;;21.70;99.90;;;;;;5020840;28;20476;-87
2022/06/28 04:49:53;;;;;;;12.10;10.98;;;21.70;99.90;;;;;;4991701;28;20768;-87
2022/06/28 04:52:20;;;;;;;12.50;11.20;;;21.70;99.90;;;;;;5003687;28;20424;-86
2022/06/28 04:54:53;;;;;;;12.73;11.50;;;21.80;99.90;;;;;;5024248;28;20396;-87
2022/06/28 04:57:28;;;;;;;13.45;12.05;;;21.80;99.90;;;;;;4992753;28;20391;-88
2022/06/28 05:00:17;;;;;;;13.23;12.02;;;21.80;99.90;;;;;;4992420;28;20480;-87
2022/06/28 05:02:56;;;;;;;12.55;11.43;;;21.90;99.90;;;;;;5007537;28;20448;-87
2022/06/28 05:05:47;;;;;;;13.93;12.43;;;22.10;99.90;;;;;;5002934;28;20925;-87
2022/06/28 05:08:15;;;;;;;12.80;11.32;;;22.30;99.90;;;;;;5006444;28;20405;-86
2022/06/28 05:10:55;;;;;;;13.48;11.35;;;22.40;99.90;;;;;;4981235;28;20457;-87
2022/06/28 05:13:56;;;;;;;14.60;12.00;;;22.60;99.90;;;;;;5024098;28;20409;-87
2022/06/28 05:16:24;;;;;;;13.63;12.27;;;22.70;99.90;;;;;;5024241;28;20873;-87
2022/06/28 05:18:52;;;;;;;13.93;11.68;;;22.60;99.90;;;;;;4999979;28;20772;-86
2022/06/28 05:21:29;;;;;;;14.75;11.70;;;22.60;99.90;;;;;;5009174;28;20495;-86
2022/06/28 05:23:57;;;;;;;15.70;12.10;;;22.60;99.90;;;;;;4979168;28;20405;-87
2022/06/28 05:26:25;;;;;;;13.43;11.73;;;22.70;99.90;;;;;;5023496;28;20764;-86
2022/06/28 05:29:13;;;;;;;13.40;12.00;;;22.70;99.90;;;;;;5004736;28;20405;-86
2022/06/28 05:31:40;;;;;;;14.52;12.95;;;22.90;99.90;;;;;;4992460;28;20489;-86
2022/06/28 05:34:08;;;;;;;14.38;12.88;;;23.00;99.90;;;;;;5001494;28;20772;-85
2022/06/28 05:36:39;;;;;;;15.57;14.00;;;23.20;99.90;;;;;;5024781;28;20575;-87
2022/06/28 05:39:09;;;;;;;18.70;16.77;;;23.10;99.90;;;;;;5010286;28;20411;-87
2022/06/28 05:41:36;;;;;;;21.25;18.00;;;23.20;99.90;;;;;;5008722;28;20426;-87
2022/06/28 05:44:05;;;;;;;21.15;18.42;;;23.40;99.90;;;;;;5010492;28;20425;-87
2022/06/28 05:46:32;;;;;;;21.98;18.52;;;23.40;99.90;;;;;;5013817;28;20387;-86
2022/06/28 05:49:01;;;;;;;24.83;20.10;;;23.40;99.90;;;;;;5009098;28;20407;-86
2022/06/28 05:51:29;;;;;;;25.83;21.67;;;23.50;99.90;;;;;;5014085;28;20486;-86
2022/06/28 05:53:57;;;;;;;26.77;21.50;;;23.60;99.90;;;;;;5046965;28;20435;-86
2022/06/28 05:56:25;;;;;;;27.80;21.25;;;23.50;99.90;;;;;;5030694;28;20391;-87
2022/06/28 05:58:53;;;;;;;26.67;21.45;;;23.50;99.90;;;;;;5010301;28;20492;-88
2022/06/28 06:01:22;;;;;;;33.85;23.25;;;23.50;99.90;;;;;;4994531;28;20393;-87
2022/06/28 06:03:50;;;;;;;31.48;22.02;;;23.60;99.90;;;;;;5034180;28;20480;-85
2022/06/28 06:06:18;;;;;;;29.42;22.15;;;23.60;99.90;;;;;;5004170;28;20425;-87
2022/06/28 06:08:49;;;;;;;28.48;20.85;;;23.60;99.90;;;;;;5026502;28;20408;-87
2022/06/28 06:11:16;;;;;;;32.53;22.48;;;23.60;99.90;;;;;;5027169;28;20400;-86
2022/06/28 06:13:44;;;;;;;29.83;17.98;;;23.70;99.90;;;;;;5018689;28;20397;-87
2022/06/28 06:16:12;;;;;;;28.38;18.33;;;23.80;99.90;;;;;;5022809;28;20407;-86
2022/06/28 06:18:39;;;;;;;28.80;17.40;;;23.90;99.90;;;;;;5010091;28;20420;-87
2022/06/28 06:21:08;;;;;;;23.30;15.95;;;23.90;99.90;;;;;;5025946;28;20426;-86
2022/06/28 06:23:35;;;;;;;18.02;13.65;;;24.00;99.90;;;;;;5027009;28;20961;-87
2022/06/28 06:26:03;;;;;;;17.20;13.35;;;24.00;99.90;;;;;;5010405;28;20479;-87
2022/06/28 06:28:34;;;;;;;15.95;12.70;;;24.00;99.90;;;;;;5043935;28;20394;-88
2022/06/28 06:31:03;;;;;;;18.08;12.35;;;24.00;99.90;;;;;;5030465;28;20391;-87
2022/06/28 06:34:00;;;;;;;18.75;12.75;;;24.00;99.90;;;;;;4999331;28;20396;-85
2022/06/28 06:36:45;;;;;;;19.55;13.18;;;24.00;99.90;;;;;;5010439;28;20400;-88
2022/06/28 06:39:14;;;;;;;18.75;13.77;;;24.00;99.90;;;;;;4996898;28;20413;-87
2022/06/28 06:41:42;;;;;;;20.58;13.35;;;24.10;99.90;;;;;;4998244;28;20400;-86
2022/06/28 06:44:10;;;;;;;16.02;12.95;;;24.20;99.90;;;;;;5029161;28;20481;-87
2022/06/28 06:46:41;;;;;;;14.55;12.55;;;24.20;99.90;;;;;;5019197;28;20422;-87
2022/06/28 06:49:09;;;;;;;15.07;13.45;;;24.30;99.90;;;;;;5028853;28;20413;-88
2022/06/28 06:51:37;;;;;;;16.55;13.13;;;24.40;99.90;;;;;;5007929;28;20399;-87
2022/06/28 06:54:05;;;;;;;14.45;13.02;;;24.40;99.90;;;;;;5000012;28;20455;-85
2022/06/28 06:56:32;;;;;;;15.40;12.85;;;24.50;99.90;;;;;;4996678;28;21107;-87
2022/06/28 06:59:00;;;;;;;13.70;12.43;;;24.60;99.90;;;;;;5021449;28;20408;-86
2022/06/28 07:01:30;;;;;;;13.68;12.32;;;24.60;99.90;;;;;;5004528;28;20385;-87
2022/06/28 07:04:15;;;;;;;14.02;12.63;;;24.60;99.90;;;;;;5025007;28;20400;-86
2022/06/28 07:06:44;;;;;;;13.93;12.55;;;24.80;99.90;;;;;;4994762;28;20396;-87
2022/06/28 07:09:12;;;;;;;14.10;12.70;;;24.90;99.90;;;;;;5026239;28;20403;-87
2022/06/28 07:11:40;;;;;;;13.68;12.43;;;24.90;99.90;;;;;;5016740;28;20393;-87
2022/06/28 07:14:08;;;;;;;13.15;11.82;;;24.80;99.90;;;;;;5008544;28;20903;-87
2022/06/28 07:16:36;;;;;;;13.07;11.88;;;24.80;99.90;;;;;;5043287;28;20494;-87
2022/06/28 07:19:04;;;;;;;12.83;11.50;;;24.90;99.90;;;;;;5012613;28;20411;-87
2022/06/28 07:21:32;;;;;;;12.45;11.35;;;25.20;99.90;;;;;;5045839;28;20408;-87
2022/06/28 07:24:01;;;;;;;13.25;11.63;;;25.20;99.90;;;;;;5008786;28;20893;-87
2022/06/28 07:26:30;;;;;;;13.00;11.77;;;25.20;99.90;;;;;;5009546;28;20400;-87
2022/06/28 07:28:58;;;;;;;13.00;11.70;;;25.20;99.90;;;;;;5025715;28;20409;-87
2022/06/28 07:31:28;;;;;;;13.50;12.35;;;25.30;99.90;;;;;;5025860;28;20409;-87
2022/06/28 07:33:55;;;;;;;15.07;13.50;;;25.20;99.90;;;;;;5001626;28;20401;-87
2022/06/28 07:36:24;;;;;;;13.55;12.20;;;25.20;99.90;;;;;;5008737;28;20893;-87
2022/06/28 07:38:54;;;;;;;14.63;13.13;;;25.20;99.90;;;;;;5025321;28;20823;-87
2022/06/28 07:41:24;;;;;;;14.18;12.88;;;25.40;99.90;;;;;;4993830;28;20391;-87
2022/06/28 07:44:01;;;;;;;14.25;12.90;;;25.60;99.90;;;;;;4994220;28;20744;-86
2022/06/28 07:46:30;;;;;;;15.43;14.13;;;25.50;99.90;;;;;;5025605;28;20428;-87
2022/06/28 07:48:59;;;;;;;15.40;13.75;;;25.40;99.90;;;;;;4993837;28;20399;-87
2022/06/28 07:54:19;;;;;;;15.07;13.55;;;25.60;99.90;;;;;;5026718;28;20482;-87
2022/06/28 07:56:52;;;;;;;14.13;12.82;;;25.60;99.90;;;;;;5011934;28;20889;-86
2022/06/28 07:59:20;;;;;;;14.45;12.52;;;25.70;99.90;;;;;;5028716;28;20454;-88
2022/06/28 08:01:49;;;;;;;14.85;13.55;;;25.70;99.90;;;;;;5012139;28;20399;-86
2022/06/28 08:04:21;;;;;;;13.88;12.50;;;25.90;99.90;;;;;;5044885;28;20391;-88
2022/06/28 08:06:50;;;;;;;13.82;12.52;;;25.90;99.90;;;;;;5044758;28;20399;-87
2022/06/28 08:09:21;;;;;;;13.97;12.67;;;26.10;99.90;;;;;;5011897;28;20403;-87
2022/06/28 08:11:50;;;;;;;14.20;12.90;;;26.10;99.90;;;;;;5028416;28;20395;-86
2022/06/28 08:14:19;;;;;;;14.70;13.30;;;26.10;99.90;;;;;;5028718;28;20903;-86
2022/06/28 08:16:47;;;;;;;14.73;13.23;;;26.10;99.90;;;;;;5044678;28;20489;-87
2022/06/28 08:19:15;;;;;;;14.77;13.38;;;26.10;99.90;;;;;;5011573;28;20992;-87
2022/06/28 08:21:45;;;;;;;13.53;12.33;;;26.10;99.90;;;;;;5044435;28;20399;-87
2022/06/28 08:24:13;;;;;;;14.40;12.90;;;26.10;99.90;;;;;;5027563;28;20412;-86
2022/06/28 08:26:43;;;;;;;14.10;12.73;;;26.20;99.90;;;;;;4993491;28;20879;-86
2022/06/28 08:29:12;;;;;;;13.60;12.30;;;26.20;99.90;;;;;;4991792;28;20405;-85
2022/06/28 08:31:41;;;;;;;14.82;13.38;;;26.20;99.90;;;;;;5034791;28;20407;-87
2022/06/28 08:34:09;;;;;;;15.18;13.77;;;26.30;99.90;;;;;;5044401;28;20399;-86
2022/06/28 08:36:37;;;;;;;14.73;13.20;;;26.40;99.90;;;;;;5005648;28;20407;-86
2022/06/28 08:39:05;;;;;;;14.55;13.25;;;26.40;99.90;;;;;;5006601;28;20409;-85
2022/06/28 08:41:34;;;;;;;14.70;13.13;;;26.50;99.90;;;;;;4999217;28;20391;-86
2022/06/28 08:44:02;;;;;;;14.32;12.80;;;26.50;99.90;;;;;;4999399;28;20396;-86
2022/06/28 08:46:31;;;;;;;14.18;12.70;;;26.60;99.90;;;;;;4992809;28;20385;-86
2022/06/28 08:49:04;;;;;;;14.23;12.83;;;26.60;99.90;;;;;;4992763;28;20970;-86
2022/06/28 08:51:34;;;;;;;14.90;13.03;;;26.60;99.90;;;;;;5009759;28;20403;-85
2022/06/28 08:54:03;;;;;;;14.27;12.43;;;26.50;99.90;;;;;;5010694;28;20399;-83
2022/06/28 08:56:30;;;;;;;14.38;12.88;;;26.60;99.90;;;;;;5002470;28;20391;-84
2022/06/28 08:58:59;;;;;;;13.70;12.30;;;26.60;99.90;;;;;;5023929;28;20401;-85
2022/06/28 09:01:27;;;;;;;13.90;12.60;;;26.70;99.90;;;;;;5037229;28;20407;-86
2022/06/28 09:03:55;;;;;;;14.88;13.23;;;26.70;99.90;;;;;;5007170;28;20403;-86
2022/06/28 09:06:23;;;;;;;14.40;13.00;;;26.70;99.90;;;;;;4998437;28;20932;-86
2022/06/28 09:08:51;;;;;;;15.48;13.77;;;26.70;99.90;;;;;;5008825;28;20384;-85
2022/06/28 09:11:19;;;;;;;15.20;13.20;;;26.90;99.90;;;;;;5008119;28;20439;-86
2022/06/28 09:13:46;;;;;;;14.55;13.05;;;26.90;99.90;;;;;;5009408;28;20395;-87
2022/06/28 09:16:14;;;;;;;16.25;14.02;;;26.90;99.90;;;;;;5037326;28;20414;-84
2022/06/28 09:18:42;;;;;;;15.35;13.13;;;27.00;99.90;;;;;;5007120;28;20403;-86
2022/06/28 09:21:12;;;;;;;14.95;13.55;;;27.00;99.90;;;;;;5013669;28;20406;-85
2022/06/28 09:23:43;;;;;;;15.93;13.70;;;27.00;99.90;;;;;;5016816;28;20430;-86
2022/06/28 09:26:12;;;;;;;14.88;13.38;;;27.10;99.90;;;;;;5015966;28;20431;-85
2022/06/28 09:28:43;;;;;;;15.20;13.80;;;27.20;99.90;;;;;;5015478;28;20917;-86
2022/06/28 09:31:17;;;;;;;15.50;13.90;;;27.20;99.90;;;;;;5005015;28;20395;-86
2022/06/28 09:33:48;;;;;;;15.45;13.82;;;27.20;99.90;;;;;;5048742;28;21311;-86
2022/06/28 09:36:18;;;;;;;15.53;13.93;;;27.20;99.90;;;;;;5018266;28;20878;-86
2022/06/28 09:38:45;;;;;;;15.27;13.07;;;27.30;99.90;;;;;;5024774;28;20401;-86
2022/06/28 09:41:27;;;;;;;14.85;13.38;;;27.50;99.90;;;;;;5037607;28;20929;-87
2022/06/28 09:44:00;;;;;;;14.93;13.55;;;27.50;99.90;;;;;;5020761;28;20385;-87
2022/06/28 09:46:32;;;;;;;14.57;13.17;;;27.40;99.90;;;;;;5020061;28;20395;-86
2022/06/28 09:49:04;;;;;;;14.90;13.50;;;27.40;99.90;;;;;;5017106;28;20387;-86
2022/06/28 09:51:33;;;;;;;15.07;13.60;;;27.50;99.90;;;;;;5006439;28;20390;-86
2022/06/28 09:54:05;;;;;;;15.48;13.98;;;27.50;99.90;;;;;;4996402;28;20865;-86
2022/06/28 09:56:55;;;;;;;15.67;14.17;;;27.60;99.90;;;;;;5018579;28;20481;-86
2022/06/28 09:59:25;;;;;;;15.98;14.38;;;27.70;99.90;;;;;;5034330;28;20433;-87
2022/06/28 10:01:55;;;;;;;14.87;13.37;;;27.70;99.90;;;;;;5028224;28;20481;-87
2022/06/28 10:04:25;;;;;;;15.20;13.68;;;27.70;99.90;;;;;;5016544;28;20408;-86
2022/06/28 10:06:53;;;;;;;14.63;13.07;;;27.80;99.90;;;;;;5016393;28;20394;-86
2022/06/28 10:09:21;;;;;;;15.30;13.83;;;27.90;99.90;;;;;;5023966;28;20405;-86
2022/06/28 10:17:39;;;;;;;14.70;13.30;;;28.10;99.90;;;;;;5032302;28;20965;-87
2022/06/28 10:20:10;;;;;;;15.00;13.50;;;28.10;99.90;;;;;;5025048;28;20442;-86
2022/06/28 10:22:38;;;;;;;12.80;11.57;;;28.00;99.90;;;;;;5029173;28;20494;-87
2022/06/28 10:25:18;;;;;;;13.07;11.98;;;28.10;99.90;;;;;;5016763;28;20446;-87
2022/06/28 10:27:50;;;;;;;13.77;12.38;;;28.00;99.90;;;;;;5001810;28;20394;-87
2022/06/28 10:30:21;;;;;;;14.00;12.60;;;28.10;99.90;;;;;;5016845;28;20490;-86
2022/06/28 10:33:02;;;;;;;15.18;13.35;;;28.30;99.90;;;;;;5012389;28;20945;-86
2022/06/28 10:35:34;;;;;;;17.77;13.55;;;28.40;99.90;;;;;;5028030;28;20442;-86
2022/06/28 10:38:08;;;;;;;14.15;12.65;;;28.50;99.90;;;;;;5040969;28;20389;-86
2022/06/28 10:40:49;;;;;;;14.57;13.17;;;28.40;99.90;;;;;;4999120;28;20778;-86
2022/06/28 10:43:46;;;;;;;13.45;12.25;;;28.40;99.90;;;;;;5011173;28;20384;-87
2022/06/28 10:46:14;;;;;;;13.73;12.53;;;28.50;99.90;;;;;;5042229;28;20743;-86
2022/06/28 10:48:48;;;;;;;13.25;12.02;;;28.40;99.90;;;;;;5046405;28;20955;-87
2022/06/28 10:51:17;;;;;;;14.18;12.95;;;28.50;99.90;;;;;;5018113;28;20398;-86
2022/06/28 10:54:02;;;;;;;13.95;12.52;;;28.40;99.90;;;;;;4996880;28;20406;-87
2022/06/28 10:56:41;;;;;;;13.32;12.18;;;28.50;99.90;;;;;;5008708;28;20394;-87
2022/06/28 10:59:16;;;;;;;14.18;12.77;;;28.40;99.90;;;;;;5013242;28;20409;-87
2022/06/28 11:01:46;;;;;;;14.82;13.32;;;28.50;99.90;;;;;;5004835;28;20415;-86
2022/06/28 11:04:23;;;;;;;14.73;13.37;;;28.50;99.90;;;;;;5029659;28;20774;-87
2022/06/28 11:06:56;;;;;;;14.70;13.30;;;28.50;99.90;;;;;;5049101;28;20389;-87
2022/06/28 11:09:47;;;;;;;14.55;12.75;;;28.50;99.90;;;;;;5049236;28;20477;-86
2022/06/28 11:12:24;;;;;;;15.15;13.55;;;28.50;99.90;;;;;;5032179;28;20398;-87
2022/06/28 11:14:53;;;;;;;15.15;13.65;;;28.50;99.90;;;;;;5039385;28;20399;-87
2022/06/28 11:17:25;;;;;;;14.82;13.25;;;28.50;99.90;;;;;;5035035;28;20430;-87
2022/06/28 11:20:00;;;;;;;15.07;13.68;;;28.50;99.90;;;;;;5026406;28;20446;-86
2022/06/28 11:22:43;;;;;;;15.07;13.50;;;28.60;99.90;;;;;;5013054;28;20441;-85
2022/06/28 11:25:13;;;;;;;14.50;13.10;;;28.60;99.90;;;;;;5010731;28;20401;-86
2022/06/28 11:27:57;;;;;;;14.02;12.55;;;28.70;99.90;;;;;;5021898;28;20402;-87
2022/06/28 11:30:28;;;;;;;14.27;12.87;;;28.70;99.90;;;;;;5025621;28;20446;-86
2022/06/28 11:32:59;;;;;;;14.55;13.10;;;28.80;99.90;;;;;;5027396;28;20434;-86
2022/06/28 11:35:30;;;;;;;15.23;12.80;;;28.90;99.90;;;;;;5012825;28;20890;-87
2022/06/28 11:37:59;;;;;;;13.23;11.47;;;28.90;99.90;;;;;;5005515;28;20403;-86
2022/06/28 11:40:54;;;;;;;13.00;11.73;;;28.90;99.90;;;;;;5008900;28;20458;-87
2022/06/28 11:43:25;;;;;;;13.68;12.10;;;28.80;99.90;;;;;;5011980;28;20410;-87
2022/06/28 11:45:55;;;;;;;14.05;12.75;;;28.70;99.90;;;;;;5034001;28;20754;-87
2022/06/28 11:48:28;;;;;;;17.03;12.70;;;28.60;99.90;;;;;;5017061;28;20399;-86
2022/06/28 11:50:58;;;;;;;13.90;12.50;;;28.60;99.90;;;;;;5012151;28;20441;-87
2022/06/28 11:53:27;;;;;;;13.82;12.43;;;28.60;99.90;;;;;;5013394;28;20395;-86
2022/06/28 11:55:57;;;;;;;13.03;11.83;;;28.60;99.90;;;;;;5013254;28;20399;-86
2022/06/28 11:58:32;;;;;;;13.35;12.02;;;28.60;99.90;;;;;;5003284;28;20399;-87
2022/06/28 12:01:16;;;;;;;13.30;12.05;;;28.70;99.90;;;;;;5001537;28;20446;-87
2022/06/28 12:03:44;;;;;;;13.43;12.13;;;28.70;99.90;;;;;;5022047;28;20389;-86
2022/06/28 12:06:18;;;;;;;13.45;12.15;;;28.60;99.90;;;;;;5031171;28;20484;-87
2022/06/28 12:08:49;;;;;;;16.30;12.03;;;28.70;99.90;;;;;;5031595;28;20393;-87
2022/06/28 12:11:36;;;;;;;25.30;13.60;;;28.70;99.90;;;;;;5014293;28;20390;-87
2022/06/28 12:14:22;;;;;;;18.67;12.07;;;28.60;99.90;;;;;;5020751;28;20426;-87
2022/06/28 12:16:57;;;;;;;21.60;12.23;;;28.50;99.90;;;;;;5000812;28;20860;-85
2022/06/28 12:19:33;;;;;;;16.55;11.57;;;28.50;99.90;;;;;;5012460;28;20390;-87
2022/06/28 12:22:10;;;;;;;17.83;11.43;;;28.40;99.90;;;;;;5013735;28;20923;-87
2022/06/28 12:24:51;;;;;;;15.18;11.98;;;28.40;99.90;;;;;;5019778;28;20408;-87
2022/06/28 12:27:31;;;;;;;13.38;12.07;;;28.30;99.90;;;;;;5016269;28;20386;-88
2022/06/28 12:30:00;;;;;;;12.80;11.50;;;28.40;99.90;;;;;;5021214;28;21055;-87
2022/06/28 12:32:28;;;;;;;13.60;12.20;;;28.30;99.90;;;;;;5014026;28;20463;-87
2022/06/28 12:35:15;;;;;;;14.65;12.10;;;28.30;99.90;;;;;;5032202;28;20381;-86
2022/06/28 12:37:43;;;;;;;13.53;11.80;;;28.40;99.90;;;;;;5014692;28;20385;-88
2022/06/28 12:40:11;;;;;;;13.40;12.00;;;28.40;99.90;;;;;;5046958;28;20416;-87
2022/06/28 12:42:39;;;;;;;15.60;12.30;;;28.50;99.90;;;;;;5014487;28;20449;-86
2022/06/28 12:45:07;;;;;;;12.23;10.98;;;28.60;99.90;;;;;;5010994;28;20395;-87
2022/06/28 12:47:37;;;;;;;13.27;12.05;;;28.60;99.90;;;;;;5012545;28;20455;-87
2022/06/28 12:50:08;;;;;;;14.07;12.68;;;28.60;99.90;;;;;;5027663;28;20786;-87
2022/06/28 12:52:37;;;;;;;14.27;12.85;;;28.50;99.90;;;;;;5027497;28;20394;-87
2022/06/28 12:55:05;;;;;;;14.07;12.53;;;28.50;99.90;;;;;;5027147;28;20485;-87
2022/06/28 12:57:33;;;;;;;13.90;12.47;;;28.50;99.90;;;;;;5000882;28;20391;-87
2022/06/28 13:00:01;;;;;;;14.27;12.98;;;28.40;99.90;;;;;;5025108;28;20389;-87
2022/06/28 13:02:28;;;;;;;14.00;12.60;;;28.50;99.90;;;;;;5030403;28;20878;-87
2022/06/28 13:04:56;;;;;;;14.15;12.85;;;28.40;99.90;;;;;;5027413;28;20445;-86